createdAt,value
2019-02-07T00:02:07.591Z,3.58
2019-02-07T00:05:00.391Z,4.05
2019-02-07T00:07:53.448Z,4.30
2019-02-07T00:10:46.254Z,5.00
2019-02-07T00:13:39.302Z,3.77
2019-02-07T00:16:33.127Z,4.33
2019-02-07T00:19:26.955Z,2.33
2019-02-07T00:22:20.008Z,4.50
2019-02-07T00:25:13.323Z,3.98
2019-02-07T00:28:06.120Z,3.15
2019-02-07T00:31:02.760Z,4.62
2019-02-07T00:33:55.567Z,3.65
2019-02-07T00:36:45.016Z,5.22
2019-02-07T00:39:37.832Z,4.20
2019-02-07T00:42:30.634Z,4.08
2019-02-07T00:45:19.850Z,3.77
2019-02-07T00:48:13.931Z,3.85
2019-02-07T00:51:07.750Z,3.60
2019-02-07T00:54:00.552Z,4.15
2019-02-07T00:56:53.609Z,5.67
2019-02-07T00:59:40.994Z,4.70
2019-02-07T01:02:34.091Z,4.30
2019-02-07T01:05:27.404Z,4.40
2019-02-07T01:08:20.462Z,3.98
2019-02-07T01:11:13.514Z,3.47
2019-02-07T01:14:06.566Z,3.75
2019-02-07T01:16:59.623Z,3.58
2019-02-07T01:19:52.424Z,4.40
2019-02-07T01:22:45.478Z,3.70
2019-02-07T01:25:40.586Z,5.03
2019-02-07T01:28:33.385Z,4.30
2019-02-07T01:31:22.345Z,4.47
2019-02-07T01:34:15.142Z,3.00
2019-02-07T01:37:08.198Z,5.00
2019-02-07T01:40:01.257Z,3.72
2019-02-07T01:42:55.831Z,6.75
2019-02-07T01:45:51.213Z,4.20
2019-02-07T01:48:45.800Z,4.53
2019-02-07T01:51:38.858Z,4.70
2019-02-07T01:54:32.679Z,4.22
2019-02-07T01:57:25.480Z,3.80
2019-02-07T02:00:25.703Z,4.50
2019-02-07T02:03:18.763Z,4.60
2019-02-07T02:06:07.910Z,3.60
2019-02-07T02:09:00.783Z,4.37
2019-02-07T02:11:53.576Z,4.42
2019-02-07T02:14:46.377Z,3.37
2019-02-07T02:17:39.433Z,4.55
2019-02-07T02:20:32.747Z,4.60
2019-02-07T02:23:27.847Z,4.80
2019-02-07T02:26:20.913Z,3.25
2019-02-07T02:29:14.214Z,5.62
2019-02-07T02:32:07.015Z,4.65
2019-02-07T02:35:03.143Z,3.25
2019-02-07T02:37:56.971Z,4.58
2019-02-07T02:40:49.768Z,4.67
2019-02-07T02:43:42.572Z,5.53
2019-02-07T02:46:31.786Z,4.35
2019-02-07T02:49:24.584Z,5.70
2019-02-07T02:52:17.386Z,5.65
2019-02-07T02:55:11.723Z,3.80
2019-02-07T02:58:04.782Z,3.90
2019-02-07T03:01:08.840Z,5.00
2019-02-07T03:04:15.723Z,5.00
2019-02-07T03:07:14.919Z,4.75
2019-02-07T03:10:24.875Z,4.20
2019-02-07T03:13:31.758Z,4.78
2019-02-07T03:16:45.799Z,4.83
2019-02-07T03:20:02.675Z,4.35
2019-02-07T03:23:06.726Z,4.40
2019-02-07T03:26:09.511Z,3.92
2019-02-07T03:29:12.551Z,4.42
2019-02-07T03:32:22.509Z,3.02
2019-02-07T03:35:29.899Z,4.05
2019-02-07T03:38:28.910Z,3.62
2019-02-07T03:41:36.487Z,3.80
2019-02-07T03:44:49.515Z,2.98
2019-02-07T03:48:00.113Z,3.25
2019-02-07T03:51:13.254Z,3.10
2019-02-07T03:54:32.428Z,2.90
2019-02-07T03:57:43.400Z,2.20
2019-02-07T04:00:53.612Z,2.42
2019-02-07T04:04:06.631Z,2.42
2019-02-07T04:07:22.726Z,2.35
2019-02-07T04:10:22.956Z,2.30
2019-02-07T04:13:32.646Z,2.20
2019-02-07T04:16:36.968Z,1.70
2019-02-07T04:19:44.358Z,2.00
2019-02-07T04:22:47.143Z,1.40
2019-02-07T04:25:52.488Z,1.82
2019-02-07T04:29:15.754Z,1.52
2019-02-07T04:32:29.033Z,1.82
2019-02-07T04:35:43.082Z,1.70
2019-02-07T04:38:42.535Z,1.22
2019-02-07T04:41:47.114Z,1.60
2019-02-07T04:44:57.339Z,1.37
2019-02-07T04:48:04.459Z,1.70
2019-02-07T04:51:13.906Z,1.57
2019-02-07T04:54:26.920Z,1.20
2019-02-07T04:57:46.087Z,1.30
2019-02-07T05:00:59.112Z,1.27
2019-02-07T05:04:03.430Z,1.50
2019-02-07T05:07:05.960Z,1.25
2019-02-07T05:10:04.907Z,1.05
2019-02-07T05:13:17.414Z,0.90
2019-02-07T05:16:21.225Z,0.98
2019-02-07T05:19:27.086Z,0.80
2019-02-07T05:22:33.200Z,0.93
2019-02-07T05:25:38.538Z,0.80
2019-02-07T05:28:46.696Z,1.20
2019-02-07T05:31:49.481Z,1.12
2019-02-07T05:34:54.567Z,1.40
2019-02-07T05:37:55.308Z,1.40
2019-02-07T05:41:17.542Z,1.30
2019-02-07T05:44:20.838Z,1.30
2019-02-07T05:47:40.524Z,1.10
2019-02-07T05:50:48.175Z,1.02
2019-02-07T05:53:57.862Z,1.40
2019-02-07T05:57:11.661Z,1.17
2019-02-07T06:00:18.790Z,1.02
2019-02-07T06:03:34.935Z,1.20
2019-02-07T06:06:41.765Z,1.02
2019-02-07T06:09:43.320Z,1.32
2019-02-07T06:12:50.156Z,1.42
2019-02-07T06:15:57.128Z,1.52
2019-02-07T06:19:01.358Z,1.75
2019-02-07T06:22:23.593Z,1.82
2019-02-07T06:25:40.718Z,2.22
2019-02-07T06:28:57.688Z,1.60
2019-02-07T06:32:02.922Z,1.40
2019-02-07T06:35:07.245Z,1.60
2019-02-07T06:38:17.448Z,1.20
2019-02-07T06:41:21.509Z,1.75
2019-02-07T06:44:32.232Z,2.02
2019-02-07T06:47:39.369Z,1.87
2019-02-07T06:54:11.559Z,2.00
2019-02-07T06:57:30.478Z,2.67
2019-02-07T07:00:37.095Z,1.55
2019-02-07T07:03:50.120Z,1.40
2019-02-07T07:06:54.186Z,2.30
2019-02-07T07:10:02.091Z,1.50
2019-02-07T07:13:12.300Z,1.85
2019-02-07T07:16:18.946Z,1.77
2019-02-07T07:19:26.058Z,1.70
2019-02-07T07:22:28.839Z,2.05
2019-02-07T07:25:45.707Z,1.75
2019-02-07T07:28:55.660Z,1.70
2019-02-07T07:32:11.759Z,1.95
2019-02-07T07:35:15.058Z,1.60
2019-02-07T07:38:21.937Z,2.00
2019-02-07T07:41:41.352Z,2.20
2019-02-07T07:44:45.427Z,2.12
2019-02-07T07:47:47.692Z,3.58
2019-02-07T07:50:51.500Z,2.25
2019-02-07T07:53:55.818Z,2.15
2019-02-07T07:57:07.816Z,1.22
2019-02-07T08:00:12.139Z,2.25
2019-02-07T08:03:14.921Z,2.22
2019-02-07T08:06:18.985Z,2.05
2019-02-07T08:09:38.414Z,1.92
2019-02-07T08:12:40.679Z,1.75
2019-02-07T08:15:48.330Z,2.27
2019-02-07T08:18:47.791Z,2.37
2019-02-07T08:21:51.078Z,2.17
2019-02-07T08:25:04.620Z,2.45
2019-02-07T08:28:08.681Z,2.83
2019-02-07T08:31:16.328Z,2.12
2019-02-07T08:34:29.360Z,1.80
2019-02-07T08:37:42.376Z,1.85
2019-02-07T08:40:45.926Z,1.85
2019-02-07T08:44:04.844Z,2.45
2019-02-07T08:47:27.111Z,2.08
2019-02-07T08:50:33.759Z,1.60
2019-02-07T08:53:50.060Z,2.37
2019-02-07T08:57:11.785Z,2.35
2019-02-07T09:00:19.689Z,1.67
2019-02-07T09:03:34.251Z,1.80
2019-02-07T09:06:33.194Z,2.08
2019-02-07T09:09:35.726Z,2.72
2019-02-07T09:12:40.557Z,1.57
2019-02-07T09:15:53.320Z,1.90
2019-02-07T09:18:56.361Z,2.10
2019-02-07T09:22:01.960Z,1.77
2019-02-07T09:25:19.080Z,2.22
2019-02-07T09:28:30.313Z,2.20
2019-02-07T09:31:46.151Z,2.65
2019-02-07T09:34:48.326Z,1.72
2019-02-07T09:37:53.003Z,1.98
2019-02-07T09:41:08.840Z,1.72
2019-02-07T09:44:13.418Z,2.42
2019-02-07T09:47:26.445Z,2.50
2019-02-07T09:50:24.486Z,2.00
2019-02-07T09:53:24.046Z,2.02
2019-02-07T09:56:33.005Z,1.77
2019-02-07T09:59:43.209Z,1.55
2019-02-07T10:02:48.298Z,2.00
2019-02-07T10:05:52.616Z,2.10
2019-02-07T10:09:09.222Z,2.10
2019-02-07T10:12:25.320Z,1.72
2019-02-07T10:15:32.200Z,1.60
2019-02-07T10:18:36.263Z,2.10
2019-02-07T10:21:52.359Z,1.85
2019-02-07T10:25:05.383Z,1.42
2019-02-07T10:28:09.705Z,1.47
2019-02-07T10:31:13.459Z,1.50
2019-02-07T10:34:18.787Z,1.42
2019-02-07T10:37:22.917Z,1.65
2019-02-07T10:40:29.542Z,1.22
2019-02-07T10:43:42.825Z,1.80
2019-02-07T10:47:01.994Z,1.30
2019-02-07T10:50:10.663Z,1.72
2019-02-07T10:53:13.968Z,1.20
2019-02-07T10:56:18.037Z,1.47
2019-02-07T10:59:20.561Z,1.87
2019-02-07T11:02:23.080Z,1.92
2019-02-07T11:05:30.470Z,1.30
2019-02-07T11:08:30.953Z,1.15
2019-02-07T11:11:33.491Z,1.47
2019-02-07T11:14:42.407Z,1.90
2019-02-07T11:17:46.472Z,1.62
2019-02-07T11:21:05.639Z,1.37
2019-02-07T11:24:08.176Z,1.60
2019-02-07T11:27:20.937Z,1.50
2019-02-07T11:30:33.960Z,1.62
2019-02-07T11:33:32.137Z,1.75
2019-02-07T11:36:53.773Z,1.67
2019-02-07T11:40:07.404Z,1.90
2019-02-07T11:43:15.051Z,1.72
2019-02-07T11:46:37.463Z,2.08
2019-02-07T11:49:35.975Z,1.45
2019-02-07T11:52:46.440Z,1.65
2019-02-07T11:55:53.839Z,1.45
2019-02-07T11:59:13.256Z,1.87
2019-02-07T12:02:27.305Z,1.40
2019-02-07T12:05:49.544Z,1.52
2019-02-07T12:08:53.350Z,1.82
2019-02-07T12:11:58.440Z,1.57
2019-02-07T12:15:05.325Z,1.67
2019-02-07T12:18:08.361Z,1.47
2019-02-07T12:21:18.313Z,1.17
2019-02-07T12:24:33.895Z,1.42
2019-02-07T12:27:34.194Z,1.50
2019-02-07T12:30:39.975Z,2.27
2019-02-07T12:33:56.205Z,1.35
2019-02-07T12:37:01.671Z,1.20
2019-02-07T12:40:02.088Z,1.65
2019-02-07T12:43:06.215Z,1.40
2019-02-07T12:46:10.352Z,1.70
2019-02-07T12:49:28.965Z,2.12
2019-02-07T12:52:27.366Z,1.62
2019-02-07T12:55:34.247Z,1.47
2019-02-07T12:58:56.489Z,2.90
2019-02-07T13:02:03.112Z,1.85
2019-02-07T13:05:13.319Z,1.42
2019-02-07T13:08:16.875Z,1.92
2019-02-07T13:11:19.409Z,1.32
2019-02-07T13:14:29.103Z,1.42
2019-02-07T13:17:34.954Z,1.52
2019-02-07T13:20:38.285Z,1.67
2019-02-07T13:23:38.221Z,1.92
2019-02-07T13:26:48.166Z,1.20
2019-02-07T13:29:50.952Z,1.67
2019-02-07T13:32:53.735Z,1.17
2019-02-07T13:36:05.579Z,1.25
2019-02-07T13:39:16.715Z,1.37
2019-02-07T13:42:15.655Z,1.15
2019-02-07T13:45:30.730Z,1.30
2019-02-07T13:48:33.254Z,1.35
2019-02-07T13:51:55.289Z,1.20
2019-02-07T13:54:58.539Z,2.05
2019-02-07T13:58:17.705Z,1.07
2019-02-07T14:01:27.912Z,1.45
2019-02-07T14:04:25.138Z,1.12
2019-02-07T14:07:31.438Z,1.07
2019-02-07T14:10:42.409Z,1.20
2019-02-07T14:14:01.576Z,1.37
2019-02-07T14:17:24.329Z,1.87
2019-02-07T14:20:37.609Z,1.45
2019-02-07T14:24:00.106Z,2.22
2019-02-07T14:27:04.174Z,1.15
2019-02-07T14:30:01.842Z,0.95
2019-02-07T14:33:15.114Z,1.02
2019-02-07T14:36:28.140Z,1.15
2019-02-07T14:39:33.736Z,1.60
2019-02-07T14:42:38.825Z,1.02
2019-02-07T14:45:56.455Z,1.60
2019-02-07T14:48:49.520Z,1.20
2019-02-07T14:51:43.085Z,1.52
2019-02-07T14:54:36.392Z,1.52
2019-02-07T14:57:29.707Z,1.30
2019-02-07T15:00:19.183Z,1.47
2019-02-07T15:03:12.246Z,1.45
2019-02-07T15:06:05.295Z,1.45
2019-02-07T15:08:59.372Z,1.30
2019-02-07T15:11:52.422Z,1.42
2019-02-07T15:14:45.224Z,1.57
2019-02-07T15:17:38.280Z,1.07
2019-02-07T15:20:31.334Z,1.35
2019-02-07T15:23:24.396Z,1.35
2019-02-07T15:26:17.455Z,1.40
2019-02-07T15:36:03.175Z,1.20
2019-02-07T15:38:56.234Z,1.45
2019-02-07T15:41:49.292Z,1.50
2019-02-07T15:44:42.347Z,1.02
2019-02-07T15:47:35.404Z,1.22
2019-02-07T15:50:37.866Z,1.52
2019-02-07T15:53:22.538Z,1.60
2019-02-07T15:56:15.592Z,1.65
2019-02-07T15:59:19.656Z,1.37
2019-02-07T16:02:13.532Z,1.75
2019-02-07T16:05:07.821Z,2.02
2019-02-07T16:08:02.150Z,1.50
2019-02-07T16:10:55.209Z,1.37
2019-02-07T16:13:48.012Z,1.40
2019-02-07T16:16:41.062Z,1.42
2019-02-07T16:19:46.671Z,1.55
2019-02-07T16:22:39.462Z,1.55
2019-02-07T16:25:33.038Z,1.40
2019-02-07T16:28:26.359Z,1.25
2019-02-07T16:31:19.402Z,1.47
2019-02-07T16:34:12.461Z,1.45
2019-02-07T16:37:05.522Z,2.05
2019-02-07T16:39:55.786Z,1.75
2019-02-07T16:42:48.560Z,1.42
2019-02-07T16:45:43.662Z,1.47
2019-02-07T16:48:36.967Z,1.95
2019-02-07T16:51:30.028Z,1.50
2019-02-07T16:54:22.834Z,2.25
2019-02-07T16:57:15.886Z,14.10
2019-02-07T17:00:08.682Z,2.75
2019-02-07T17:03:01.480Z,2.05
2019-02-07T17:05:55.571Z,2.33
2019-02-07T17:08:48.874Z,4.45
2019-02-07T17:11:41.935Z,2.37
2019-02-07T17:14:34.732Z,2.90
2019-02-07T17:17:23.943Z,2.08
2019-02-07T17:20:17.004Z,3.15
2019-02-07T17:23:09.803Z,1.95
2019-02-07T17:26:02.601Z,1.90
2019-02-07T17:28:55.400Z,2.40
2019-02-07T17:31:56.651Z,2.02
2019-02-07T17:34:49.707Z,2.22
2019-02-07T17:37:42.761Z,2.50
2019-02-07T17:40:36.586Z,2.55
2019-02-07T17:43:30.924Z,2.55
2019-02-07T17:46:19.881Z,2.30
2019-02-07T17:49:12.940Z,1.92
2019-02-07T17:52:05.991Z,1.57
2019-02-07T17:54:59.052Z,1.55
2019-02-07T17:57:52.116Z,1.90
2019-02-07T18:00:48.233Z,1.80
2019-02-07T18:03:41.314Z,1.55
2019-02-07T18:06:34.618Z,2.00
2019-02-07T18:09:29.450Z,1.90
2019-02-07T18:12:22.507Z,1.85
2019-02-07T18:15:15.561Z,1.90
2019-02-07T18:18:08.624Z,2.98
2019-02-07T18:21:09.100Z,2.52
2019-02-07T18:24:02.154Z,2.45
2019-02-07T18:26:54.952Z,2.55
2019-02-07T18:29:44.172Z,3.02
2019-02-07T18:32:37.228Z,3.05
2019-02-07T18:35:31.306Z,4.15
2019-02-07T18:38:20.545Z,3.42
2019-02-07T18:41:10.699Z,4.20
2019-02-07T18:44:04.072Z,4.30
2019-02-07T18:46:57.136Z,3.30
2019-02-07T18:49:46.601Z,4.60
2019-02-07T18:52:39.657Z,2.70
2019-02-07T18:55:33.479Z,4.20
2019-02-07T18:58:27.565Z,3.72
2019-02-07T19:01:17.049Z,3.52
2019-02-07T19:04:05.997Z,3.80
2019-02-07T19:06:58.796Z,3.37
2019-02-07T19:09:52.106Z,3.55
2019-02-07T19:12:45.177Z,4.55
2019-02-07T19:15:49.738Z,2.47
2019-02-07T19:18:42.794Z,2.20
2019-02-07T19:21:36.108Z,4.03
2019-02-07T19:24:29.674Z,3.90
2019-02-07T19:27:18.891Z,2.58
2019-02-07T19:30:11.689Z,3.50
2019-02-07T19:33:05.511Z,3.37
2019-02-07T19:35:58.312Z,3.12
2019-02-07T19:38:51.371Z,2.55
2019-02-07T19:41:44.189Z,3.62
2019-02-07T19:44:38.508Z,2.45
2019-02-07T19:47:32.074Z,2.55
2019-02-07T19:50:25.135Z,3.08
2019-02-07T19:53:18.694Z,2.98
2019-02-07T19:56:14.567Z,2.58
2019-02-07T19:59:07.893Z,2.27
2019-02-07T20:02:00.939Z,2.50
2019-02-07T20:04:53.997Z,1.90
2019-02-07T20:07:48.073Z,2.22
2019-02-07T20:10:38.157Z,3.05
2019-02-07T20:13:27.532Z,2.40
2019-02-07T20:16:21.609Z,2.42
2019-02-07T20:19:14.667Z,1.82
2019-02-07T20:22:13.024Z,2.22
2019-02-07T20:25:00.783Z,2.22
2019-02-07T20:27:54.090Z,2.27
2019-02-07T20:33:42.770Z,2.25
2019-02-07T20:36:35.819Z,2.17
2019-02-07T20:39:31.181Z,2.67
2019-02-07T20:42:24.749Z,2.30
2019-02-07T20:45:18.319Z,2.45
2019-02-07T20:48:11.625Z,2.10
2019-02-07T20:51:01.198Z,2.92
2019-02-07T20:53:54.409Z,2.22
2019-02-07T20:56:47.466Z,2.27
2019-02-07T20:59:36.939Z,2.37
2019-02-07T21:02:29.999Z,2.02
2019-02-07T21:05:15.370Z,2.15
2019-02-07T21:08:07.150Z,1.82
2019-02-07T21:11:00.200Z,1.92
2019-02-07T21:13:54.029Z,2.60
2019-02-07T21:16:47.346Z,2.00
2019-02-07T21:19:40.405Z,2.17
2019-02-07T21:22:34.877Z,2.30
2019-02-07T21:25:29.336Z,2.60
2019-02-07T21:28:22.633Z,1.72
2019-02-07T21:31:11.857Z,2.05
2019-02-07T21:34:05.930Z,1.72
2019-02-07T21:36:59.240Z,2.35
2019-02-07T21:39:53.326Z,2.00
2019-02-07T21:42:46.379Z,1.55
2019-02-07T21:45:40.466Z,2.12
2019-02-07T21:48:34.284Z,1.62
2019-02-07T21:51:27.598Z,1.90
2019-02-07T21:54:20.931Z,2.20
2019-02-07T21:57:13.964Z,1.90
2019-02-07T22:00:07.271Z,2.15
2019-02-07T22:03:00.332Z,1.92
2019-02-07T22:05:53.131Z,2.00
2019-02-07T22:08:42.344Z,1.80
2019-02-07T22:11:35.403Z,2.00
2019-02-07T22:14:28.967Z,1.37
2019-02-07T22:17:22.026Z,2.10
2019-02-07T22:20:15.605Z,1.77
2019-02-07T22:23:08.653Z,3.37
2019-02-07T22:26:01.720Z,2.02
2019-02-07T22:28:49.130Z,1.27
2019-02-07T22:31:42.440Z,2.02
2019-02-07T22:34:35.497Z,2.05
2019-02-07T22:37:28.555Z,1.60
2019-02-07T22:40:21.608Z,1.65
2019-02-07T22:43:14.666Z,2.58
2019-02-07T22:46:07.721Z,1.85
2019-02-07T22:49:01.290Z,2.02
2019-02-07T22:51:50.251Z,1.50
2019-02-07T22:54:43.561Z,1.67
2019-02-07T22:57:41.225Z,1.65
2019-02-07T23:00:45.799Z,2.40
2019-02-07T23:03:38.859Z,2.40
2019-02-07T23:06:32.440Z,1.87
2019-02-07T23:09:21.637Z,1.80
2019-02-07T23:12:14.698Z,1.90
2019-02-07T23:15:07.758Z,2.00
2019-02-07T23:18:00.810Z,1.65
2019-02-07T23:20:53.611Z,1.57
2019-02-07T23:23:44.874Z,1.90
2019-02-07T23:26:34.350Z,1.67
2019-02-07T23:29:27.405Z,1.98
2019-02-07T23:32:20.460Z,1.50
2019-02-07T23:35:14.534Z,1.65
2019-02-07T23:38:03.760Z,2.02
2019-02-07T23:40:56.550Z,2.40
2019-02-07T23:43:46.351Z,2.52
2019-02-07T23:46:35.758Z,1.65
2019-02-07T23:49:24.969Z,2.27
2019-02-07T23:52:18.281Z,2.15
2019-02-07T23:55:11.089Z,2.17
2019-02-07T23:58:04.921Z,1.90
